Time;durP1;ratioP1;P1;durP2;ratioP2;P2;SDS_P1;SDS_P2;PMS_P1;PMS_P2;Temp;Humidity;BMP_temperature;BMP_pressure;BME280_temperature;BME280_humidity;BME280_pressure;Samples;Min_cycle;Max_cycle;Signal;HPM_P1;HPM_P2
2022/12/02 00:00:14;;;;;;;35.85;15.93;;;;;;;;;;5033538;28;20025;-42
2022/12/02 00:02:39;;;;;;;37.55;16.92;;;;;;;;;;5032623;28;20022;-42
2022/12/02 00:05:23;;;;;;;33.45;16.25;;;;;;;;;;5032795;28;20072;-42
2022/12/02 00:07:48;;;;;;;34.15;15.25;;;;;;;;;;5032744;28;20531;-40
2022/12/02 00:10:32;;;;;;;35.22;15.80;;;;;;;;;;5032399;28;20133;-41
2022/12/02 00:13:07;;;;;;;35.35;15.52;;;;;;;;;;5032690;28;20388;-41
2022/12/02 00:15:43;;;;;;;35.83;16.33;;;;;;;;;;5033052;28;20037;-43
2022/12/02 00:18:09;;;;;;;36.42;16.77;;;;;;;;;;5032721;28;20393;-42
2022/12/02 00:20:35;;;;;;;33.88;16.00;;;;;;;;;;5032458;28;20388;-39
2022/12/02 00:23:00;;;;;;;42.42;18.02;;;;;;;;;;5031864;28;20026;-43
2022/12/02 00:25:25;;;;;;;35.95;15.98;;;;;;;;;;5032748;28;20112;-42
2022/12/02 00:27:51;;;;;;;38.55;17.13;;;;;;;;;;5032591;28;20026;-40
2022/12/02 00:30:16;;;;;;;33.75;15.98;;;;;;;;;;5032436;28;20044;-43
2022/12/02 00:32:41;;;;;;;34.38;16.15;;;;;;;;;;5032752;28;20017;-41
2022/12/02 00:35:07;;;;;;;34.60;15.77;;;;;;;;;;5032476;28;20026;-43
2022/12/02 00:37:32;;;;;;;37.88;17.38;;;;;;;;;;5032566;28;20346;-43
2022/12/02 00:39:57;;;;;;;32.85;16.05;;;;;;;;;;5032181;28;20164;-42
2022/12/02 00:42:22;;;;;;;36.13;16.10;;;;;;;;;;5032523;28;20025;-42
2022/12/02 00:47:32;;;;;;;38.78;16.77;;;;;;;;;;5032476;28;20068;-42
2022/12/02 00:49:57;;;;;;;36.40;16.83;;;;;;;;;;5032117;28;20037;-43
2022/12/02 00:52:22;;;;;;;37.58;16.40;;;;;;;;;;5032259;28;20025;-39
2022/12/02 00:54:47;;;;;;;36.65;17.00;;;;;;;;;;5032593;28;20105;-41
2022/12/02 00:57:13;;;;;;;35.90;16.52;;;;;;;;;;5032143;28;20017;-42
2022/12/02 00:59:38;;;;;;;36.80;15.50;;;;;;;;;;5032153;28;20025;-42
2022/12/02 01:02:03;;;;;;;32.95;15.52;;;;;;;;;;5032328;28;20028;-42
2022/12/02 01:04:28;;;;;;;36.38;16.08;;;;;;;;;;5032002;28;20018;-43
2022/12/02 01:06:54;;;;;;;40.42;16.38;;;;;;;;;;5032333;28;20033;-42
2022/12/02 01:09:19;;;;;;;40.78;18.23;;;;;;;;;;5032174;28;20156;-42
2022/12/02 01:11:44;;;;;;;32.35;14.95;;;;;;;;;;5032019;28;20054;-42
2022/12/02 01:14:10;;;;;;;37.92;16.17;;;;;;;;;;5032260;28;20037;-41
2022/12/02 01:16:35;;;;;;;36.95;16.67;;;;;;;;;;5031866;28;20040;-40
2022/12/02 01:19:00;;;;;;;36.95;16.85;;;;;;;;;;5032222;28;20024;-40
2022/12/02 01:21:26;;;;;;;36.42;15.52;;;;;;;;;;5032090;28;20022;-42
2022/12/02 01:23:51;;;;;;;30.75;14.43;;;;;;;;;;5032109;28;20092;-40
2022/12/02 01:26:16;;;;;;;36.70;16.13;;;;;;;;;;5031917;28;20017;-42
2022/12/02 01:28:42;;;;;;;31.65;14.40;;;;;;;;;;5031914;28;20369;-43
2022/12/02 01:31:07;;;;;;;40.17;16.40;;;;;;;;;;5032054;28;20022;-42
2022/12/02 01:33:32;;;;;;;38.13;16.40;;;;;;;;;;5032027;28;20092;-40
2022/12/02 01:35:58;;;;;;;39.95;16.25;;;;;;;;;;5035966;28;20045;-40
2022/12/02 01:38:23;;;;;;;36.15;15.38;;;;;;;;;;5035711;28;20021;-41
2022/12/02 01:40:48;;;;;;;38.17;16.40;;;;;;;;;;5035733;28;20032;-41
2022/12/02 01:43:14;;;;;;;33.15;15.85;;;;;;;;;;5035513;28;20021;-42
2022/12/02 01:45:39;;;;;;;33.17;16.20;;;;;;;;;;5035540;28;20026;-40
2022/12/02 01:48:05;;;;;;;33.00;15.70;;;;;;;;;;5035082;28;20021;-42
2022/12/02 01:50:31;;;;;;;38.53;16.42;;;;;;;;;;5035580;28;20114;-39
2022/12/02 01:52:56;;;;;;;31.45;14.98;;;;;;;;;;5035760;28;20404;-39
2022/12/02 01:55:22;;;;;;;33.13;16.20;;;;;;;;;;5035117;28;20025;-42
2022/12/02 01:57:47;;;;;;;31.73;15.38;;;;;;;;;;5035348;28;20021;-41
2022/12/02 02:00:13;;;;;;;34.50;15.23;;;;;;;;;;5035696;28;20026;-42
2022/12/02 02:02:39;;;;;;;31.92;15.90;;;;;;;;;;5034971;28;20021;-41
2022/12/02 02:05:06;;;;;;;33.72;14.65;;;;;;;;;;5035344;28;20083;-42
2022/12/02 02:07:32;;;;;;;36.33;15.55;;;;;;;;;;5035194;28;20082;-41
2022/12/02 02:09:58;;;;;;;35.55;16.30;;;;;;;;;;5034970;28;20472;-42
2022/12/02 02:12:23;;;;;;;37.38;16.23;;;;;;;;;;5034824;28;20126;-43
2022/12/02 02:14:50;;;;;;;36.00;16.17;;;;;;;;;;5034918;28;20028;-42
2022/12/02 02:17:17;;;;;;;36.63;16.85;;;;;;;;;;5034572;28;20028;-40
2022/12/02 02:19:43;;;;;;;33.80;15.45;;;;;;;;;;5034919;28;20017;-40
2022/12/02 02:22:20;;;;;;;37.67;16.40;;;;;;;;;;5034861;28;20487;-41
2022/12/02 02:24:45;;;;;;;35.13;15.82;;;;;;;;;;5015490;28;20022;-39
2022/12/02 02:27:10;;;;;;;34.35;15.52;;;;;;;;;;5033727;28;20119;-42
2022/12/02 02:29:36;;;;;;;36.53;16.42;;;;;;;;;;5034586;28;20037;-40
2022/12/02 02:32:01;;;;;;;34.67;15.65;;;;;;;;;;5034309;28;20025;-41
2022/12/02 02:34:26;;;;;;;34.95;15.93;;;;;;;;;;5034560;28;20021;-43
2022/12/02 02:36:52;;;;;;;34.20;16.58;;;;;;;;;;5034609;28;20040;-43
2022/12/02 02:39:18;;;;;;;34.10;14.80;;;;;;;;;;5034421;28;20029;-42
2022/12/02 02:41:43;;;;;;;32.83;15.48;;;;;;;;;;5034398;28;20021;-42
2022/12/02 02:44:08;;;;;;;37.25;16.70;;;;;;;;;;5034476;28;20465;-42
2022/12/02 02:46:34;;;;;;;33.50;16.30;;;;;;;;;;5032480;28;20465;-44
2022/12/02 02:48:59;;;;;;;36.75;16.15;;;;;;;;;;5033741;28;20044;-43
2022/12/02 02:51:24;;;;;;;38.63;17.00;;;;;;;;;;5033198;28;20013;-41
2022/12/02 02:53:50;;;;;;;36.20;16.83;;;;;;;;;;5032373;28;20384;-40
2022/12/02 02:56:15;;;;;;;36.30;16.70;;;;;;;;;;5033564;28;20053;-40
2022/12/02 02:58:40;;;;;;;35.13;15.73;;;;;;;;;;5032822;28;20109;-39
2022/12/02 03:01:07;;;;;;;39.67;16.58;;;;;;;;;;5033902;28;20640;-40
2022/12/02 03:03:34;;;;;;;34.90;16.10;;;;;;;;;;5034066;28;20026;-41
2022/12/02 03:06:00;;;;;;;35.55;16.15;;;;;;;;;;5034336;28;20025;-43
2022/12/02 03:08:26;;;;;;;38.75;18.15;;;;;;;;;;5033843;28;20358;-43
2022/12/02 03:10:52;;;;;;;35.83;16.92;;;;;;;;;;5033666;28;20191;-42
2022/12/02 03:13:18;;;;;;;37.22;16.38;;;;;;;;;;5033633;28;20475;-41
2022/12/02 03:15:43;;;;;;;32.20;16.27;;;;;;;;;;5033772;28;20028;-44
2022/12/02 03:18:09;;;;;;;34.50;15.35;;;;;;;;;;5033667;28;20104;-41
2022/12/02 03:20:34;;;;;;;32.95;16.02;;;;;;;;;;5033838;28;20027;-43
2022/12/02 03:23:00;;;;;;;35.00;16.35;;;;;;;;;;5033686;28;20018;-40
2022/12/02 03:25:25;;;;;;;34.33;16.05;;;;;;;;;;5033539;28;20025;-41
2022/12/02 03:27:51;;;;;;;35.30;17.50;;;;;;;;;;5033467;28;20508;-43
2022/12/02 03:30:16;;;;;;;39.78;17.13;;;;;;;;;;5033464;28;20037;-42
2022/12/02 03:32:41;;;;;;;36.65;17.05;;;;;;;;;;5033486;28;20061;-41
2022/12/02 03:35:07;;;;;;;39.15;16.52;;;;;;;;;;5032973;28;20048;-43
2022/12/02 03:37:32;;;;;;;40.45;18.10;;;;;;;;;;5033324;28;20022;-42
2022/12/02 03:39:58;;;;;;;36.83;17.45;;;;;;;;;;5033769;28;20428;-42
2022/12/02 03:42:24;;;;;;;43.85;17.70;;;;;;;;;;5033272;28;20025;-40
2022/12/02 03:44:49;;;;;;;45.25;18.30;;;;;;;;;;5033054;28;20032;-43
2022/12/02 03:47:15;;;;;;;56.75;19.83;;;;;;;;;;5033211;28;20026;-43
2022/12/02 03:49:40;;;;;;;57.08;21.70;;;;;;;;;;5033066;28;20034;-43
2022/12/02 03:52:05;;;;;;;60.30;21.10;;;;;;;;;;5033318;28;20013;-43
2022/12/02 03:54:31;;;;;;;59.10;22.40;;;;;;;;;;5032942;28;20025;-42
2022/12/02 03:56:56;;;;;;;53.80;20.27;;;;;;;;;;5032690;28;20032;-44
2022/12/02 03:59:26;;;;;;;43.78;19.33;;;;;;;;;;5032833;28;20032;-40
2022/12/02 04:01:52;;;;;;;49.50;19.50;;;;;;;;;;5033081;28;20053;-42
2022/12/02 04:04:17;;;;;;;41.42;16.27;;;;;;;;;;5033001;28;20025;-42
2022/12/02 04:06:42;;;;;;;40.50;18.35;;;;;;;;;;5032803;28;20531;-42
2022/12/02 04:09:08;;;;;;;43.10;18.55;;;;;;;;;;5032833;28;20076;-43
2022/12/02 04:11:33;;;;;;;44.70;18.63;;;;;;;;;;5032981;28;20516;-43
2022/12/02 04:13:58;;;;;;;40.03;17.15;;;;;;;;;;5032851;28;20017;-43
2022/12/02 04:16:24;;;;;;;39.17;17.30;;;;;;;;;;5032769;28;20069;-43
2022/12/02 04:18:49;;;;;;;42.17;18.02;;;;;;;;;;5032620;28;20028;-44
2022/12/02 04:21:14;;;;;;;37.65;16.73;;;;;;;;;;5032724;28;20066;-42
2022/12/02 04:23:40;;;;;;;36.95;16.70;;;;;;;;;;5032528;28;20017;-43
2022/12/02 04:26:05;;;;;;;36.85;16.73;;;;;;;;;;5032492;28;20025;-44
2022/12/02 04:28:30;;;;;;;34.22;16.70;;;;;;;;;;5032228;28;20039;-41
2022/12/02 04:30:56;;;;;;;40.83;17.92;;;;;;;;;;5032455;28;20028;-42
2022/12/02 04:33:21;;;;;;;37.40;17.13;;;;;;;;;;5032605;28;20021;-43
2022/12/02 04:35:46;;;;;;;36.63;17.23;;;;;;;;;;5032709;28;20026;-44
2022/12/02 04:38:12;;;;;;;37.17;17.30;;;;;;;;;;5032223;28;20069;-44
2022/12/02 04:40:37;;;;;;;37.75;15.60;;;;;;;;;;5030930;28;20112;-41
2022/12/02 04:43:02;;;;;;;33.45;15.18;;;;;;;;;;5032276;28;20053;-43
2022/12/02 04:45:27;;;;;;;34.53;16.45;;;;;;;;;;5032333;28;20068;-41
2022/12/02 04:47:53;;;;;;;33.90;17.08;;;;;;;;;;5032436;28;20022;-40
2022/12/02 04:50:18;;;;;;;33.90;15.52;;;;;;;;;;5032158;28;20029;-42
2022/12/02 04:52:43;;;;;;;35.78;16.75;;;;;;;;;;5032135;28;20022;-41
2022/12/02 04:55:09;;;;;;;37.25;15.50;;;;;;;;;;5032238;28;20017;-43
2022/12/02 04:57:34;;;;;;;38.13;17.08;;;;;;;;;;5032020;28;20143;-43
2022/12/02 04:59:59;;;;;;;36.08;16.27;;;;;;;;;;5032347;28;20033;-43
2022/12/02 05:02:25;;;;;;;35.08;16.13;;;;;;;;;;5032242;28;20053;-44
2022/12/02 05:04:50;;;;;;;34.42;15.98;;;;;;;;;;5032069;28;20071;-42
2022/12/02 05:07:16;;;;;;;37.25;16.30;;;;;;;;;;5032434;28;20463;-38
2022/12/02 05:09:41;;;;;;;36.22;16.92;;;;;;;;;;5034123;28;20046;-43
2022/12/02 05:12:06;;;;;;;46.30;19.55;;;;;;;;;;5035683;28;20508;-43
2022/12/02 05:14:32;;;;;;;45.15;19.40;;;;;;;;;;5035842;28;20030;-42
2022/12/02 05:16:57;;;;;;;40.88;18.33;;;;;;;;;;5036021;28;20018;-45
2022/12/02 05:19:22;;;;;;;35.72;16.35;;;;;;;;;;5036099;28;20017;-42
2022/12/02 05:21:48;;;;;;;37.00;15.88;;;;;;;;;;5036227;28;20096;-41
2022/12/02 05:24:13;;;;;;;39.13;16.45;;;;;;;;;;5035824;28;20109;-43
2022/12/02 05:26:38;;;;;;;36.40;16.63;;;;;;;;;;5035654;28;20021;-41
2022/12/02 05:29:04;;;;;;;39.08;16.60;;;;;;;;;;5035735;28;20464;-42
2022/12/02 05:31:30;;;;;;;42.97;18.33;;;;;;;;;;5035721;28;20108;-43
2022/12/02 05:33:55;;;;;;;42.78;17.33;;;;;;;;;;5035882;28;20045;-42
2022/12/02 05:36:20;;;;;;;45.28;18.38;;;;;;;;;;5035483;28;20096;-42
2022/12/02 05:38:46;;;;;;;39.30;17.25;;;;;;;;;;5035728;28;20013;-43
2022/12/02 05:41:11;;;;;;;42.03;19.17;;;;;;;;;;5035458;28;20415;-43
2022/12/02 05:43:38;;;;;;;36.50;16.63;;;;;;;;;;5035359;28;20024;-43
2022/12/02 05:46:09;;;;;;;36.50;17.13;;;;;;;;;;5035580;28;20034;-43
2022/12/02 05:48:35;;;;;;;39.58;16.83;;;;;;;;;;5035441;28;20371;-44
2022/12/02 05:51:00;;;;;;;42.88;17.00;;;;;;;;;;5035293;28;20104;-42
2022/12/02 05:53:26;;;;;;;41.00;16.23;;;;;;;;;;5035410;28;20028;-42
2022/12/02 05:55:53;;;;;;;37.85;16.52;;;;;;;;;;5035051;28;20021;-43
2022/12/02 05:58:18;;;;;;;36.70;16.67;;;;;;;;;;5035434;28;20021;-44
2022/12/02 06:00:44;;;;;;;40.92;18.25;;;;;;;;;;5035329;28;20072;-41
2022/12/02 06:03:17;;;;;;;45.42;18.73;;;;;;;;;;5035232;28;20028;-43
2022/12/02 06:05:43;;;;;;;37.63;18.60;;;;;;;;;;5035218;28;20040;-39
2022/12/02 06:08:19;;;;;;;42.75;18.80;;;;;;;;;;5034868;28;20025;-43
2022/12/02 06:10:51;;;;;;;43.33;17.60;;;;;;;;;;5034608;28;20611;-44
2022/12/02 06:13:20;;;;;;;38.08;17.17;;;;;;;;;;5035044;28;20035;-42
2022/12/02 06:15:46;;;;;;;41.58;18.08;;;;;;;;;;5034877;28;20101;-43
2022/12/02 06:18:13;;;;;;;38.15;18.17;;;;;;;;;;5034781;28;20025;-43
2022/12/02 06:20:39;;;;;;;40.15;16.38;;;;;;;;;;5033290;28;20053;-40
2022/12/02 06:23:07;;;;;;;38.83;16.85;;;;;;;;;;5034452;28;20049;-42
2022/12/02 06:25:35;;;;;;;36.65;17.10;;;;;;;;;;5034990;28;20068;-43
2022/12/02 06:28:09;;;;;;;40.35;17.02;;;;;;;;;;5034759;28;20397;-38
2022/12/02 06:30:34;;;;;;;35.70;16.98;;;;;;;;;;5034508;28;20033;-41
2022/12/02 06:34:51;;;;;;;37.00;17.35;;;;;;;;;;5080991;27;20379;-33
2022/12/02 06:37:19;;;;;;;38.20;17.70;;;;;;;;;;5062585;28;20033;-33
2022/12/02 06:39:46;;;;;;;39.50;19.40;;;;;;;;;;5050231;28;20108;-33
2022/12/02 06:42:28;;;;;;;44.28;18.98;;;;;;;;;;5064706;28;20043;-33
2022/12/02 06:45:04;;;;;;;39.30;18.50;;;;;;;;;;5074083;28;20016;-33
2022/12/02 06:47:33;;;;;;;41.40;18.20;;;;;;;;;;5066953;28;20071;-33
2022/12/02 06:50:05;;;;;;;43.83;17.50;;;;;;;;;;5050056;28;20067;-34
2022/12/02 06:52:34;;;;;;;40.28;17.25;;;;;;;;;;5049509;28;20025;-33
2022/12/02 06:55:00;;;;;;;37.47;16.42;;;;;;;;;;5050650;28;20016;-33
2022/12/02 06:57:26;;;;;;;38.50;16.77;;;;;;;;;;5055884;28;20016;-33
2022/12/02 06:59:51;;;;;;;42.50;17.00;;;;;;;;;;5058672;28;20037;-33
2022/12/02 07:02:23;;;;;;;39.15;16.65;;;;;;;;;;5057202;28;20028;-33
2022/12/02 07:04:50;;;;;;;39.45;17.90;;;;;;;;;;5056841;28;20451;-33
2022/12/02 07:07:15;;;;;;;39.15;17.42;;;;;;;;;;5054519;28;20025;-34
2022/12/02 07:09:52;;;;;;;43.17;17.58;;;;;;;;;;5061961;28;20075;-34
2022/12/02 07:12:19;;;;;;;35.75;16.90;;;;;;;;;;5057263;28;20162;-34
2022/12/02 07:14:44;;;;;;;40.25;18.60;;;;;;;;;;5066480;28;20036;-34
2022/12/02 07:17:28;;;;;;;36.00;17.40;;;;;;;;;;5058997;28;20063;-35
2022/12/02 07:19:54;;;;;;;38.50;15.95;;;;;;;;;;5051157;28;20025;-34
2022/12/02 07:22:21;;;;;;;38.92;16.85;;;;;;;;;;5055923;28;20025;-34
2022/12/02 07:24:57;;;;;;;36.38;15.77;;;;;;;;;;5050807;28;20071;-35
2022/12/02 07:27:30;;;;;;;43.50;17.75;;;;;;;;;;5056401;28;20025;-34
2022/12/02 07:29:56;;;;;;;39.05;15.68;;;;;;;;;;5053331;28;20530;-33
2022/12/02 07:32:21;;;;;;;39.33;16.92;;;;;;;;;;5049585;28;20017;-34
2022/12/02 07:34:46;;;;;;;34.25;16.00;;;;;;;;;;5054398;28;20077;-33
2022/12/02 07:37:12;;;;;;;46.13;17.20;;;;;;;;;;5061406;28;20060;-33
2022/12/02 07:39:37;;;;;;;43.30;18.05;;;;;;;;;;5053934;28;20472;-33
2022/12/02 07:42:02;;;;;;;44.63;20.00;;;;;;;;;;5052228;28;20025;-39
2022/12/02 07:44:28;;;;;;;57.78;23.08;;;;;;;;;;5052453;28;20147;-34
2022/12/02 07:46:53;;;;;;;59.90;25.70;;;;;;;;;;5044922;28;20071;-33
2022/12/02 07:49:18;;;;;;;60.28;25.75;;;;;;;;;;5042641;28;20017;-34
2022/12/02 07:51:44;;;;;;;46.00;21.52;;;;;;;;;;5042713;28;20029;-33
2022/12/02 07:54:09;;;;;;;45.35;19.70;;;;;;;;;;5040946;28;20141;-33
2022/12/02 07:56:35;;;;;;;44.08;17.02;;;;;;;;;;5041428;28;20518;-34
2022/12/02 07:59:01;;;;;;;41.28;18.45;;;;;;;;;;5035686;28;20025;-34
2022/12/02 08:01:27;;;;;;;37.33;16.58;;;;;;;;;;5037391;28;20384;-34
2022/12/02 08:03:52;;;;;;;38.53;17.67;;;;;;;;;;5054754;28;20030;-34
2022/12/02 08:06:17;;;;;;;44.05;18.45;;;;;;;;;;5041562;28;20096;-35
2022/12/02 08:08:43;;;;;;;42.47;19.05;;;;;;;;;;5038689;28;20050;-33
2022/12/02 08:11:08;;;;;;;43.47;19.60;;;;;;;;;;5041989;28;20099;-33
2022/12/02 08:13:33;;;;;;;49.17;19.33;;;;;;;;;;5045122;28;20040;-34
2022/12/02 08:15:58;;;;;;;43.42;18.00;;;;;;;;;;5049991;28;20086;-34
2022/12/02 08:18:24;;;;;;;41.22;18.65;;;;;;;;;;5044984;28;20070;-33
2022/12/02 08:20:49;;;;;;;44.55;19.67;;;;;;;;;;5049596;28;20025;-34
2022/12/02 08:23:14;;;;;;;46.53;19.52;;;;;;;;;;5048631;28;20100;-33
2022/12/02 08:25:40;;;;;;;36.30;17.52;;;;;;;;;;5048763;28;20031;-33
2022/12/02 08:28:05;;;;;;;35.63;17.08;;;;;;;;;;5047490;28;20052;-33
2022/12/02 08:30:30;;;;;;;41.20;17.23;;;;;;;;;;5051377;28;20017;-34
2022/12/02 08:32:56;;;;;;;42.08;18.90;;;;;;;;;;5049563;28;20045;-33
2022/12/02 08:35:21;;;;;;;36.47;17.27;;;;;;;;;;5055182;28;20025;-33
2022/12/02 08:37:47;;;;;;;41.38;17.15;;;;;;;;;;5047000;28;20025;-39
2022/12/02 08:40:13;;;;;;;38.15;18.15;;;;;;;;;;5044594;28;20388;-41
2022/12/02 08:42:38;;;;;;;39.47;18.77;;;;;;;;;;5044641;28;20460;-35
2022/12/02 08:45:04;;;;;;;71.25;26.02;;;;;;;;;;5048028;28;20056;-56
2022/12/02 08:47:29;;;;;;;39.95;18.00;;;;;;;;;;5047672;28;20435;-35
2022/12/02 08:49:54;;;;;;;40.45;18.95;;;;;;;;;;5046783;28;20026;-35
2022/12/02 08:52:20;;;;;;;51.80;21.98;;;;;;;;;;5050212;28;20436;-35
2022/12/02 08:54:47;;;;;;;39.92;18.38;;;;;;;;;;5046940;28;20037;-35
2022/12/02 08:57:13;;;;;;;49.03;20.40;;;;;;;;;;5035138;28;20383;-35
2022/12/02 08:59:38;;;;;;;40.63;18.63;;;;;;;;;;5045550;28;20476;-35
2022/12/02 09:02:04;;;;;;;39.63;17.67;;;;;;;;;;5039619;28;20017;-35
2022/12/02 09:04:29;;;;;;;37.65;17.50;;;;;;;;;;5045042;28;20017;-34
2022/12/02 09:06:54;;;;;;;50.78;20.52;;;;;;;;;;5044376;28;20153;-35
2022/12/02 09:09:20;;;;;;;39.28;18.13;;;;;;;;;;5043109;28;20024;-35
2022/12/02 09:11:45;;;;;;;73.13;27.48;;;;;;;;;;5032921;28;20108;-36
2022/12/02 09:14:10;;;;;;;44.03;19.35;;;;;;;;;;5031904;28;20088;-35
2022/12/02 09:16:36;;;;;;;56.05;22.38;;;;;;;;;;5041275;28;20096;-36
2022/12/02 09:19:01;;;;;;;64.78;26.88;;;;;;;;;;5034318;28;20056;-36
2022/12/02 09:21:26;;;;;;;146.95;45.42;;;;;;;;;;5049131;28;20041;-35
2022/12/02 09:23:52;;;;;;;73.63;27.77;;;;;;;;;;5042324;28;20526;-35
2022/12/02 09:26:17;;;;;;;822.63;318.60;;;;;;;;;;5047685;28;20021;-35
2022/12/02 09:28:43;;;;;;;376.17;131.52;;;;;;;;;;5042779;28;20079;-34
2022/12/02 09:31:08;;;;;;;205.98;64.70;;;;;;;;;;5042679;28;20381;-35
2022/12/02 09:33:33;;;;;;;589.25;214.05;;;;;;;;;;5036716;28;20041;-35
2022/12/02 09:35:59;;;;;;;194.88;74.13;;;;;;;;;;5042342;28;20029;-35
2022/12/02 09:38:24;;;;;;;268.08;117.38;;;;;;;;;;5032281;28;20105;-35
2022/12/02 09:40:50;;;;;;;238.13;96.82;;;;;;;;;;5040889;28;20099;-34
2022/12/02 09:43:15;;;;;;;237.77;89.38;;;;;;;;;;5045568;28;20067;-35
2022/12/02 09:45:41;;;;;;;64.63;27.20;;;;;;;;;;5039274;28;20434;-35
2022/12/02 09:48:06;;;;;;;44.40;19.98;;;;;;;;;;5031899;28;20030;-35
2022/12/02 09:50:32;;;;;;;43.13;18.20;;;;;;;;;;5037231;28;20044;-35
2022/12/02 09:53:02;;;;;;;82.22;28.20;;;;;;;;;;5035807;28;20093;-35
2022/12/02 09:55:27;;;;;;;72.80;31.85;;;;;;;;;;5038259;28;20020;-35
2022/12/02 09:57:52;;;;;;;81.88;30.58;;;;;;;;;;5039155;28;20040;-35
2022/12/02 10:00:19;;;;;;;169.43;61.42;;;;;;;;;;5040192;28;20024;-35
2022/12/02 10:02:49;;;;;;;126.90;50.55;;;;;;;;;;5050670;28;20033;-35
2022/12/02 10:05:22;;;;;;;58.00;25.63;;;;;;;;;;5043762;28;20021;-34
2022/12/02 10:07:48;;;;;;;40.13;19.42;;;;;;;;;;5043868;28;20021;-34
2022/12/02 10:10:23;;;;;;;40.90;19.02;;;;;;;;;;5041226;28;20021;-35
2022/12/02 10:12:49;;;;;;;58.65;25.70;;;;;;;;;;5047271;28;20040;-37
2022/12/02 10:15:16;;;;;;;54.47;21.77;;;;;;;;;;5041710;28;20029;-36
2022/12/02 10:17:42;;;;;;;48.30;21.58;;;;;;;;;;5032354;28;20396;-35
2022/12/02 10:20:14;;;;;;;113.38;45.90;;;;;;;;;;5039942;28;20473;-35
2022/12/02 10:22:59;;;;;;;170.50;55.85;;;;;;;;;;5031571;28;20085;-35
2022/12/02 10:25:28;;;;;;;58.03;24.73;;;;;;;;;;5029931;28;20028;-36
2022/12/02 10:27:54;;;;;;;;;;;;;;;;;;5040814;28;20048;-36
2022/12/02 10:30:24;;;;;;;39.53;19.08;;;;;;;;;;5047900;28;20292;-35
2022/12/02 10:32:59;;;;;;;203.85;72.90;;;;;;;;;;5038669;23;20065;-67
2022/12/02 10:43:10;;;;;;;46.22;20.05;;;;;;;;;;6073394;22;20001;-36
2022/12/02 10:48:15;;;;;;;36.15;17.52;;;;;;;;;;5057246;22;20442;-34
2022/12/02 10:57:12;;;;;;;39.72;17.83;;;;;;;;;;4888119;28;20065;-36
2022/12/02 10:59:47;;;;;;;42.13;20.73;;;;;;;;;;4778292;28;20396;-37
2022/12/02 11:08:40;;;;;;;46.22;21.00;;;;;;;;;;4676854;28;20436;-36
2022/12/02 11:17:51;;;;;;;57.97;24.40;;;;;;;;;;4624455;28;20147;-36
2022/12/02 11:30:07;;;;;;;38.20;18.55;;;;;;;;;;4586183;28;20310;-36
2022/12/02 11:33:25;;;;;;;37.13;16.33;;;;;;;;;;4568554;28;20397;-36
2022/12/02 11:55:20;;;;;;;38.70;17.65;;;;;;;;;;4583323;28;20545;-36
2022/12/02 11:57:48;;;;;;;36.25;17.88;;;;;;;;;;4811882;23;20056;-69
2022/12/02 12:00:45;;;;;;;40.50;17.55;;;;;;;;;;5053015;28;20036;-67
2022/12/02 12:03:15;;;;;;;40.78;18.15;;;;;;;;;;5047282;28;20016;-68
2022/12/02 12:05:51;;;;;;;41.70;19.17;;;;;;;;;;5059910;28;20484;-70
2022/12/02 12:08:26;;;;;;;39.58;18.65;;;;;;;;;;5050706;28;20024;-68
2022/12/02 12:11:14;;;;;;;36.78;17.98;;;;;;;;;;5037196;28;20146;-69
2022/12/02 12:13:59;;;;;;;37.50;18.45;;;;;;;;;;4971649;28;20286;-70
2022/12/02 12:16:34;;;;;;;42.88;18.88;;;;;;;;;;5047664;28;20021;-69
2022/12/02 12:19:03;;;;;;;43.03;19.75;;;;;;;;;;5061474;28;20075;-69
2022/12/02 12:21:56;;;;;;;41.88;19.58;;;;;;;;;;4952399;28;20027;-72
2022/12/02 12:24:25;;;;;;;45.42;20.27;;;;;;;;;;5060850;28;20025;-70
2022/12/02 12:27:09;;;;;;;44.43;20.07;;;;;;;;;;5052104;28;20039;-69
2022/12/02 12:29:35;;;;;;;43.75;19.10;;;;;;;;;;5050295;28;20379;-71
2022/12/02 12:32:06;;;;;;;44.85;19.55;;;;;;;;;;5061133;28;20521;-69
2022/12/02 12:34:41;;;;;;;43.35;19.33;;;;;;;;;;5058174;28;20063;-70
2022/12/02 12:37:12;;;;;;;42.95;18.25;;;;;;;;;;5045174;28;20025;-71
2022/12/02 12:39:53;;;;;;;42.50;18.73;;;;;;;;;;5066577;28;20241;-75
2022/12/02 12:42:27;;;;;;;40.60;18.42;;;;;;;;;;5053348;28;20031;-69
2022/12/02 12:45:10;;;;;;;42.35;20.20;;;;;;;;;;5065495;28;20032;-69
2022/12/02 12:47:35;;;;;;;41.65;18.90;;;;;;;;;;5074848;22;20056;-65
2022/12/02 12:50:01;;;;;;;39.05;21.05;;;;;;;;;;5059375;28;20024;-64
2022/12/02 12:52:26;;;;;;;43.00;21.25;;;;;;;;;;5077559;28;20428;-66
2022/12/02 12:54:51;;;;;;;51.28;20.83;;;;;;;;;;5062641;28;20029;-65
2022/12/02 12:57:18;;;;;;;46.20;20.58;;;;;;;;;;5060954;28;20951;-61
2022/12/02 12:59:44;;;;;;;53.47;20.80;;;;;;;;;;5061186;28;20017;-63
2022/12/02 13:02:09;;;;;;;48.60;20.67;;;;;;;;;;5052482;28;20116;-63
2022/12/02 13:04:34;;;;;;;41.25;19.05;;;;;;;;;;5079602;28;20031;-63
2022/12/02 13:06:59;;;;;;;52.33;22.65;;;;;;;;;;5041578;28;20226;-63
2022/12/02 13:09:25;;;;;;;46.45;20.45;;;;;;;;;;5064495;28;20024;-64
2022/12/02 13:11:50;;;;;;;41.38;18.48;;;;;;;;;;5066404;28;20025;-65
2022/12/02 13:14:15;;;;;;;45.28;19.77;;;;;;;;;;5059881;28;20028;-64
2022/12/02 13:16:41;;;;;;;37.72;17.77;;;;;;;;;;5053637;28;20024;-62
2022/12/02 13:19:06;;;;;;;40.42;17.95;;;;;;;;;;5056905;28;20036;-62
2022/12/02 13:21:32;;;;;;;36.95;15.68;;;;;;;;;;5066101;28;20035;-64
2022/12/02 13:23:57;;;;;;;38.15;17.67;;;;;;;;;;5080914;28;20028;-64
2022/12/02 13:26:22;;;;;;;42.92;20.20;;;;;;;;;;5062937;28;20033;-63
2022/12/02 13:28:51;;;;;;;40.40;18.52;;;;;;;;;;5060638;28;20036;-62
2022/12/02 13:31:17;;;;;;;39.95;17.38;;;;;;;;;;5066057;28;20054;-62
2022/12/02 13:33:42;;;;;;;41.47;18.30;;;;;;;;;;5052002;28;20076;-63
2022/12/02 13:36:07;;;;;;;45.60;20.40;;;;;;;;;;5056325;28;20062;-64
2022/12/02 13:38:33;;;;;;;35.25;18.05;;;;;;;;;;5062615;28;20463;-64
2022/12/02 13:40:58;;;;;;;39.35;17.77;;;;;;;;;;5062573;28;20029;-61
2022/12/02 13:43:23;;;;;;;40.05;18.50;;;;;;;;;;5063600;28;20468;-68
2022/12/02 13:45:49;;;;;;;42.08;19.35;;;;;;;;;;5063525;28;20031;-62
2022/12/02 13:48:14;;;;;;;45.13;19.95;;;;;;;;;;5084889;28;20052;-63
2022/12/02 13:50:39;;;;;;;49.22;21.15;;;;;;;;;;5097184;28;20032;-62
2022/12/02 13:53:05;;;;;;;37.83;17.00;;;;;;;;;;5086417;27;20499;-63
2022/12/02 13:55:30;;;;;;;38.97;17.88;;;;;;;;;;5111885;27;20023;-63
2022/12/02 13:57:55;;;;;;;42.22;19.70;;;;;;;;;;5097805;27;20023;-64
2022/12/02 14:00:21;;;;;;;48.35;20.65;;;;;;;;;;5089602;28;20015;-66
2022/12/02 14:02:46;;;;;;;51.10;19.67;;;;;;;;;;5085398;28;20019;-65
2022/12/02 14:05:11;;;;;;;45.83;20.40;;;;;;;;;;5100187;28;20024;-63
2022/12/02 14:07:37;;;;;;;44.72;20.42;;;;;;;;;;5101520;28;20080;-63
2022/12/02 14:10:03;;;;;;;43.88;20.98;;;;;;;;;;5101583;28;20527;-62
2022/12/02 14:12:29;;;;;;;44.70;21.58;;;;;;;;;;5097701;28;20024;-61
2022/12/02 14:14:54;;;;;;;46.05;21.70;;;;;;;;;;5101430;28;20036;-61
2022/12/02 14:17:19;;;;;;;40.72;20.05;;;;;;;;;;5091701;28;20036;-63
2022/12/02 14:19:45;;;;;;;45.10;19.77;;;;;;;;;;5099343;28;20028;-65
2022/12/02 14:22:10;;;;;;;48.78;20.30;;;;;;;;;;5102768;28;20035;-64
2022/12/02 14:24:35;;;;;;;45.25;20.63;;;;;;;;;;5103735;28;20029;-64
2022/12/02 14:27:01;;;;;;;46.10;20.60;;;;;;;;;;5105423;28;20443;-63
2022/12/02 14:29:26;;;;;;;46.08;20.58;;;;;;;;;;5078598;28;20011;-66
2022/12/02 14:31:51;;;;;;;46.88;22.25;;;;;;;;;;5090752;28;20096;-60
2022/12/02 14:34:17;;;;;;;43.03;19.33;;;;;;;;;;5109003;28;20036;-61
2022/12/02 14:36:42;;;;;;;46.67;20.38;;;;;;;;;;5090983;28;20034;-63
2022/12/02 14:39:08;;;;;;;45.38;20.88;;;;;;;;;;5111108;28;20011;-63
2022/12/02 14:41:33;;;;;;;44.05;18.63;;;;;;;;;;5090764;28;20705;-63
2022/12/02 14:43:59;;;;;;;44.45;20.45;;;;;;;;;;5093529;28;20307;-63
2022/12/02 14:46:25;;;;;;;38.38;19.70;;;;;;;;;;5109430;28;20047;-65
2022/12/02 14:48:50;;;;;;;39.20;17.85;;;;;;;;;;5100600;28;20020;-64
2022/12/02 14:51:16;;;;;;;42.15;19.02;;;;;;;;;;5100198;28;20016;-64
2022/12/02 14:53:41;;;;;;;44.28;20.48;;;;;;;;;;5095938;28;20622;-67
2022/12/02 14:56:06;;;;;;;43.55;21.63;;;;;;;;;;5099298;28;20068;-64
2022/12/02 14:58:32;;;;;;;44.80;20.27;;;;;;;;;;5107046;28;20143;-64
2022/12/02 15:00:57;;;;;;;37.15;17.88;;;;;;;;;;5109966;28;20068;-66
2022/12/02 15:03:22;;;;;;;46.20;19.17;;;;;;;;;;5103033;28;20080;-67
2022/12/02 15:05:49;;;;;;;39.40;20.15;;;;;;;;;;5087795;28;20151;-67
2022/12/02 15:08:14;;;;;;;45.13;19.40;;;;;;;;;;5073938;28;20027;-66
2022/12/02 15:10:40;;;;;;;55.08;22.17;;;;;;;;;;5092887;28;20036;-66
2022/12/02 15:13:06;;;;;;;39.05;20.05;;;;;;;;;;5092902;28;20464;-66
2022/12/02 15:15:31;;;;;;;226.20;105.50;;;;;;;;;;5091884;28;20031;-66
2022/12/02 15:17:56;;;;;;;41.60;18.58;;;;;;;;;;5092419;28;20020;-65